createdAt,value
2022-08-29T04:30:53.378Z,8.00
2022-08-29T04:31:53.244Z,8.00
2022-08-29T04:32:53.217Z,8.00
2022-08-29T04:33:53.205Z,8.00
2022-08-29T04:34:53.197Z,12.00
2022-08-29T04:35:53.186Z,12.00
2022-08-29T04:36:53.199Z,8.00
2022-08-29T04:37:53.208Z,12.00
2022-08-29T04:38:53.143Z,12.00
2022-08-29T04:39:53.138Z,12.00
2022-08-29T04:40:53.166Z,16.00
2022-08-29T04:41:53.117Z,12.00
2022-08-29T04:42:53.152Z,16.00
2022-08-29T04:43:53.125Z,20.00
2022-08-29T04:44:53.126Z,16.00
2022-08-29T04:45:53.097Z,20.00
2022-08-29T04:46:53.131Z,20.00
2022-08-29T04:47:53.059Z,28.00
2022-08-29T04:48:53.053Z,28.00
2022-08-29T04:49:53.059Z,28.00
2022-08-29T04:50:53.021Z,32.00
2022-08-29T04:51:53.024Z,36.00
2022-08-29T04:52:53.027Z,36.00
2022-08-29T04:53:52.983Z,40.00
2022-08-29T04:54:52.999Z,40.00
2022-08-29T04:55:52.968Z,44.00
2022-08-29T04:56:52.961Z,44.00
2022-08-29T04:57:52.970Z,48.00
2022-08-29T04:58:52.939Z,52.00
2022-08-29T04:59:52.966Z,56.00
2022-08-29T05:00:52.963Z,56.00
2022-08-29T05:01:52.951Z,60.00
2022-08-29T05:02:52.956Z,60.00
2022-08-29T05:03:52.892Z,64.00
2022-08-29T05:04:52.916Z,60.00
2022-08-29T05:05:52.871Z,64.00
2022-08-29T05:06:52.886Z,64.00
2022-08-29T05:07:52.863Z,64.00
2022-08-29T05:08:55.028Z,64.00
2022-08-29T05:09:53.846Z,68.00
2022-08-29T05:10:52.816Z,72.00
2022-08-29T05:11:52.799Z,72.00
2022-08-29T05:12:52.795Z,76.00
2022-08-29T05:13:52.807Z,80.00
2022-08-29T05:14:52.766Z,80.00
2022-08-29T05:15:52.838Z,80.00
2022-08-29T05:16:52.749Z,84.00
2022-08-29T05:17:52.774Z,88.00
2022-08-29T05:18:52.708Z,96.00
2022-08-29T05:19:52.706Z,100.00
2022-08-29T05:20:52.694Z,104.00
2022-08-29T05:21:52.676Z,112.00
2022-08-29T05:22:52.714Z,116.00
2022-08-29T05:23:52.697Z,116.00
2022-08-29T05:24:52.648Z,116.00
2022-08-29T05:25:52.641Z,120.00
2022-08-29T05:26:52.650Z,120.00
2022-08-29T05:27:52.623Z,124.00
2022-08-29T05:28:52.607Z,128.00
2022-08-29T05:29:52.612Z,136.00
2022-08-29T05:30:52.711Z,144.00
2022-08-29T05:31:52.616Z,152.00
2022-08-29T05:32:52.562Z,160.00
2022-08-29T05:33:52.558Z,168.00
2022-08-29T05:34:52.543Z,176.00
2022-08-29T05:35:52.529Z,184.00
2022-08-29T05:36:52.536Z,192.00
2022-08-29T05:37:52.510Z,200.00
2022-08-29T05:38:52.509Z,212.00
2022-08-29T05:39:52.507Z,220.00
2022-08-29T05:40:52.478Z,236.00
2022-08-29T05:41:52.477Z,248.00
2022-08-29T05:42:52.479Z,248.00
2022-08-29T05:43:52.459Z,236.00
2022-08-29T05:44:52.446Z,240.00
2022-08-29T05:45:52.495Z,252.00
2022-08-29T05:46:52.419Z,264.00
2022-08-29T05:47:52.403Z,260.00
2022-08-29T05:48:52.402Z,268.00
2022-08-29T05:49:52.375Z,276.00
2022-08-29T05:50:52.396Z,252.00
2022-08-29T05:51:52.365Z,252.00
2022-08-29T05:52:52.343Z,252.00
2022-08-29T05:53:52.355Z,256.00
2022-08-29T05:54:52.321Z,260.00
2022-08-29T05:55:52.314Z,264.00
2022-08-29T05:56:52.321Z,272.00
2022-08-29T05:57:52.304Z,284.00
2022-08-29T05:58:52.302Z,292.00
2022-08-29T05:59:52.290Z,340.00
2022-08-29T06:00:52.280Z,352.00
2022-08-29T06:01:52.252Z,332.00
2022-08-29T06:02:52.530Z,348.00
2022-08-29T06:03:52.374Z,332.00
2022-08-29T06:04:52.266Z,284.00
2022-08-29T06:05:52.239Z,284.00
2022-08-29T06:06:52.202Z,280.00
2022-08-29T06:07:52.197Z,288.00
2022-08-29T06:08:52.173Z,312.00
2022-08-29T06:09:52.172Z,336.00
2022-08-29T06:10:52.176Z,324.00
2022-08-29T06:11:52.174Z,296.00
2022-08-29T06:12:52.139Z,300.00
2022-08-29T06:13:52.129Z,312.00
2022-08-29T06:14:52.119Z,328.00
2022-08-29T06:15:52.182Z,336.00
2022-08-29T06:16:52.094Z,356.00
2022-08-29T06:17:52.103Z,380.00
2022-08-29T06:18:52.072Z,400.00
2022-08-29T06:19:52.069Z,424.00
2022-08-29T06:20:52.048Z,468.00
2022-08-29T06:21:52.041Z,540.00
2022-08-29T06:22:52.040Z,604.00
2022-08-29T06:23:52.015Z,592.00
2022-08-29T06:24:52.027Z,564.00
2022-08-29T06:25:51.996Z,552.00
2022-08-29T06:26:51.995Z,616.00
2022-08-29T06:27:51.991Z,636.00
2022-08-29T06:28:51.959Z,620.00
2022-08-29T06:29:51.946Z,660.00
2022-08-29T06:30:52.027Z,896.00
2022-08-29T06:31:51.928Z,1112.00
2022-08-29T06:32:51.914Z,1144.00
2022-08-29T06:33:51.922Z,1044.00
2022-08-29T06:34:51.892Z,848.00
2022-08-29T06:35:51.884Z,732.00
2022-08-29T06:36:51.874Z,772.00
2022-08-29T06:37:51.866Z,768.00
2022-08-29T06:38:51.897Z,1000.00
2022-08-29T06:39:51.849Z,876.00
2022-08-29T06:40:51.838Z,764.00
2022-08-29T06:41:51.822Z,900.00
2022-08-29T06:42:51.815Z,964.00
2022-08-29T06:43:51.813Z,996.00
2022-08-29T06:44:51.818Z,1104.00
2022-08-29T06:45:51.810Z,1140.00
2022-08-29T06:46:51.788Z,1104.00
2022-08-29T06:47:51.761Z,940.00
2022-08-29T06:48:51.742Z,792.00
2022-08-29T06:49:51.727Z,604.00
2022-08-29T06:50:51.726Z,576.00
2022-08-29T06:51:56.799Z,540.00
2022-08-29T06:52:52.719Z,544.00
2022-08-29T06:53:51.690Z,524.00
2022-08-29T06:54:51.678Z,632.00
2022-08-29T06:55:51.675Z,544.00
2022-08-29T06:56:51.667Z,508.00
2022-08-29T06:57:51.658Z,524.00
2022-08-29T06:58:51.632Z,600.00
2022-08-29T06:59:51.620Z,584.00
2022-08-29T07:00:51.613Z,588.00
2022-08-29T07:01:51.666Z,528.00
2022-08-29T07:02:52.495Z,536.00
2022-08-29T07:03:51.587Z,540.00
2022-08-29T07:04:51.571Z,484.00
2022-08-29T07:05:51.561Z,484.00
2022-08-29T07:06:51.591Z,492.00
2022-08-29T07:07:51.537Z,592.00
2022-08-29T07:08:55.055Z,660.00
2022-08-29T07:09:51.528Z,640.00
2022-08-29T07:10:51.505Z,668.00
2022-08-29T07:11:51.506Z,568.00
2022-08-29T07:12:51.485Z,592.00
2022-08-29T07:13:51.469Z,676.00
2022-08-29T07:14:52.372Z,584.00
2022-08-29T07:15:51.520Z,516.00
2022-08-29T07:16:51.446Z,548.00
2022-08-29T07:17:51.454Z,692.00
2022-08-29T07:18:51.479Z,924.00
2022-08-29T07:19:51.413Z,856.00
2022-08-29T07:20:51.397Z,596.00
2022-08-29T07:21:51.386Z,700.00
2022-08-29T07:22:51.511Z,1036.00
2022-08-29T07:23:51.361Z,1728.00
2022-08-29T07:24:51.405Z,2036.00
2022-08-29T07:25:51.347Z,2080.00
2022-08-29T07:26:51.346Z,2188.00
2022-08-29T07:27:52.050Z,1424.00
2022-08-29T07:28:51.325Z,1920.00
2022-08-29T07:29:51.296Z,2084.00
2022-08-29T07:30:51.370Z,1872.00
2022-08-29T07:31:51.283Z,2012.00
2022-08-29T07:32:51.271Z,1784.00
2022-08-29T07:33:57.088Z,1996.00
2022-08-29T07:34:55.445Z,1888.00
2022-08-29T07:35:51.251Z,1764.00
2022-08-29T07:36:51.237Z,1920.00
2022-08-29T07:37:51.237Z,2044.00
2022-08-29T07:38:51.210Z,1964.00
2022-08-29T07:39:51.205Z,2084.00
2022-08-29T07:40:51.193Z,2176.00
2022-08-29T07:41:51.191Z,2292.00
2022-08-29T07:42:51.174Z,2248.00
2022-08-29T07:43:51.149Z,2296.00
2022-08-29T07:44:51.154Z,2272.00
2022-08-29T07:45:51.168Z,2192.00
2022-08-29T07:46:51.133Z,2148.00
2022-08-29T07:47:51.118Z,2240.00
2022-08-29T07:48:51.100Z,2008.00
2022-08-29T07:49:51.084Z,2040.00
2022-08-29T07:50:51.080Z,2076.00
2022-08-29T07:51:51.081Z,2180.00
2022-08-29T07:52:51.060Z,2080.00
2022-08-29T07:53:51.035Z,1648.00
2022-08-29T07:54:51.029Z,1860.00
2022-08-29T07:55:51.053Z,2272.00
2022-08-29T07:56:51.036Z,2240.00
2022-08-29T07:57:51.009Z,1660.00
2022-08-29T07:58:50.987Z,2000.00
2022-08-29T07:59:50.983Z,2140.00
2022-08-29T08:00:50.970Z,2196.00
2022-08-29T08:01:51.035Z,2280.00
2022-08-29T08:02:50.997Z,2256.00
2022-08-29T08:03:51.110Z,1448.00
2022-08-29T08:04:52.636Z,2064.00
2022-08-29T08:05:50.916Z,1980.00
2022-08-29T08:06:50.900Z,2308.00
2022-08-29T08:07:56.239Z,2280.00
2022-08-29T08:08:51.894Z,1764.00
2022-08-29T08:09:50.866Z,1532.00
2022-08-29T08:10:52.277Z,1256.00
2022-08-29T08:11:50.845Z,1300.00
2022-08-29T08:12:50.847Z,2208.00
2022-08-29T08:13:50.827Z,2192.00
2022-08-29T08:14:50.840Z,1604.00
2022-08-29T08:15:50.827Z,2472.00
2022-08-29T08:16:50.822Z,2120.00
2022-08-29T08:17:50.808Z,2412.00
2022-08-29T08:18:50.780Z,2144.00
2022-08-29T08:19:50.774Z,1980.00
2022-08-29T08:20:50.753Z,1688.00
2022-08-29T08:21:50.736Z,2524.00
2022-08-29T08:22:50.728Z,1940.00
2022-08-29T08:23:50.737Z,1420.00
2022-08-29T08:24:50.720Z,1180.00
2022-08-29T08:25:50.701Z,1252.00
2022-08-29T08:26:50.684Z,1448.00
2022-08-29T08:27:50.688Z,1500.00
2022-08-29T08:28:50.687Z,1348.00
2022-08-29T08:29:50.656Z,1564.00
2022-08-29T08:30:50.701Z,1696.00
2022-08-29T08:31:50.632Z,1800.00
2022-08-29T08:32:54.630Z,1928.00
2022-08-29T08:33:50.627Z,1428.00
2022-08-29T08:34:53.673Z,1968.00
2022-08-29T08:35:50.621Z,2536.00
2022-08-29T08:36:50.612Z,2492.00
2022-08-29T08:37:50.562Z,2272.00
2022-08-29T08:38:50.552Z,2384.00
2022-08-29T08:39:50.593Z,2212.00
2022-08-29T08:40:50.538Z,2352.00
2022-08-29T08:41:50.532Z,2116.00
2022-08-29T08:42:50.507Z,1540.00
2022-08-29T08:43:50.495Z,1264.00
2022-08-29T08:44:50.489Z,1108.00
2022-08-29T08:45:50.519Z,1248.00
2022-08-29T08:46:50.473Z,1440.00
2022-08-29T08:47:50.471Z,1924.00
2022-08-29T08:48:50.444Z,2200.00
2022-08-29T08:49:50.478Z,2268.00
2022-08-29T08:50:54.465Z,1876.00
2022-08-29T08:51:50.415Z,1832.00
2022-08-29T08:52:50.423Z,1916.00
2022-08-29T08:53:50.416Z,1616.00
2022-08-29T08:54:50.393Z,1912.00
2022-08-29T08:55:50.370Z,1740.00
2022-08-29T08:56:50.380Z,1900.00
2022-08-29T08:57:50.362Z,1824.00
2022-08-29T08:58:50.346Z,1976.00
2022-08-29T08:59:50.327Z,1688.00
2022-08-29T09:00:50.390Z,1804.00
2022-08-29T09:01:50.306Z,1880.00
2022-08-29T09:02:50.372Z,1828.00
2022-08-29T09:03:50.294Z,2112.00
2022-08-29T09:04:50.278Z,2316.00
2022-08-29T09:05:50.275Z,2268.00
2022-08-29T09:06:50.261Z,2284.00
2022-08-29T09:07:50.258Z,2296.00
2022-08-29T09:08:50.235Z,2312.00
2022-08-29T09:09:50.255Z,2264.00
2022-08-29T09:10:50.229Z,2324.00
2022-08-29T09:11:50.201Z,2164.00
2022-08-29T09:12:51.620Z,2268.00
2022-08-29T09:13:50.184Z,2224.00
2022-08-29T09:14:50.182Z,2124.00
2022-08-29T09:15:50.197Z,2116.00
2022-08-29T09:16:50.304Z,2056.00
2022-08-29T09:17:50.136Z,2200.00
2022-08-29T09:18:52.760Z,2156.00
2022-08-29T09:19:50.117Z,2212.00
2022-08-29T09:20:50.111Z,2132.00
2022-08-29T09:21:50.118Z,2288.00
2022-08-29T09:22:50.094Z,2288.00
2022-08-29T09:23:50.071Z,2228.00
2022-08-29T09:24:50.071Z,2252.00
2022-08-29T09:25:50.094Z,2064.00
2022-08-29T09:26:50.055Z,1916.00
2022-08-29T09:27:50.076Z,2240.00
2022-08-29T09:28:50.048Z,2120.00
2022-08-29T09:29:50.031Z,2176.00
2022-08-29T09:30:50.007Z,2172.00
2022-08-29T09:31:50.004Z,2180.00
2022-08-29T09:32:49.982Z,2176.00
2022-08-29T09:33:50.001Z,2156.00
2022-08-29T09:35:07.925Z,1976.00
2022-08-29T09:35:50.947Z,2052.00
2022-08-29T09:36:49.986Z,2132.00
2022-08-29T09:37:49.940Z,2032.00
2022-08-29T09:38:49.946Z,2216.00
2022-08-29T09:39:51.883Z,2280.00
2022-08-29T09:40:49.951Z,2280.00
2022-08-29T09:41:49.891Z,2252.00
2022-08-29T09:42:49.888Z,2368.00
2022-08-29T09:43:50.339Z,2340.00
2022-08-29T09:44:49.843Z,2276.00
2022-08-29T09:45:49.893Z,2144.00
2022-08-29T09:46:49.867Z,2364.00
2022-08-29T09:47:49.831Z,2380.00
2022-08-29T09:48:49.806Z,2404.00
2022-08-29T09:49:49.794Z,2132.00
2022-08-29T09:50:49.780Z,2260.00
2022-08-29T09:51:49.806Z,2360.00
2022-08-29T09:52:49.780Z,2284.00
2022-08-29T09:53:49.758Z,2292.00
2022-08-29T09:54:49.745Z,2392.00
2022-08-29T09:55:49.751Z,2376.00
2022-08-29T09:56:49.720Z,2272.00
2022-08-29T09:57:49.716Z,2360.00
2022-08-29T09:58:49.703Z,2308.00
2022-08-29T09:59:49.773Z,2160.00
2022-08-29T10:00:49.694Z,2136.00
2022-08-29T10:01:49.827Z,2016.00
2022-08-29T10:02:49.854Z,2272.00
2022-08-29T10:03:49.644Z,2112.00
2022-08-29T10:04:49.629Z,2412.00
2022-08-29T10:05:49.653Z,2460.00
2022-08-29T10:06:52.783Z,2376.00
2022-08-29T10:07:49.629Z,2500.00
2022-08-29T10:08:49.615Z,2360.00
2022-08-29T10:09:49.587Z,2448.00
2022-08-29T10:10:49.583Z,2468.00
2022-08-29T10:11:54.295Z,2468.00
2022-08-29T10:12:50.570Z,2408.00
2022-08-29T10:13:49.541Z,2524.00
2022-08-29T10:14:50.317Z,2524.00
2022-08-29T10:15:51.175Z,2520.00
2022-08-29T10:16:49.630Z,2416.00
2022-08-29T10:17:53.338Z,2336.00
2022-08-29T10:18:50.487Z,2284.00
2022-08-29T10:19:49.478Z,2164.00
2022-08-29T10:20:49.467Z,2296.00
2022-08-29T10:21:49.452Z,2212.00
2022-08-29T10:22:49.458Z,2320.00
2022-08-29T10:23:49.442Z,2208.00
2022-08-29T10:24:49.419Z,2368.00
2022-08-29T10:25:49.405Z,2168.00
2022-08-29T10:26:49.413Z,2300.00
2022-08-29T10:27:49.390Z,2268.00
2022-08-29T10:28:51.580Z,2168.00
2022-08-29T10:29:49.397Z,2320.00
2022-08-29T10:30:49.356Z,2208.00
2022-08-29T10:31:49.456Z,1956.00
2022-08-29T10:32:49.335Z,1956.00
2022-08-29T10:33:49.334Z,1960.00
2022-08-29T10:34:49.334Z,2228.00
2022-08-29T10:35:54.186Z,2128.00
2022-08-29T10:36:50.340Z,1840.00
2022-08-29T10:37:49.291Z,1880.00
2022-08-29T10:38:49.269Z,1940.00
2022-08-29T10:39:49.274Z,1984.00
2022-08-29T10:40:49.354Z,2132.00
2022-08-29T10:41:50.492Z,2068.00
2022-08-29T10:42:49.278Z,2152.00
2022-08-29T10:43:49.232Z,2092.00
2022-08-29T10:44:49.200Z,2204.00
2022-08-29T10:45:49.290Z,2404.00
2022-08-29T10:46:49.213Z,2500.00
2022-08-29T10:47:49.179Z,1656.00
2022-08-29T10:48:49.189Z,2504.00
2022-08-29T10:49:49.144Z,2524.00
2022-08-29T10:50:49.147Z,2468.00
2022-08-29T10:51:49.125Z,2368.00
2022-08-29T10:52:49.111Z,2336.00
2022-08-29T10:53:49.120Z,2200.00
2022-08-29T10:54:49.093Z,2088.00
2022-08-29T10:55:49.096Z,2264.00
2022-08-29T10:56:49.071Z,2376.00
2022-08-29T10:57:49.054Z,2308.00
2022-08-29T10:58:49.054Z,2252.00
2022-08-29T10:59:49.074Z,2092.00
2022-08-29T11:00:49.138Z,2072.00
2022-08-29T11:01:49.024Z,2220.00
2022-08-29T11:02:49.023Z,2184.00
2022-08-29T11:03:49.087Z,2176.00
2022-08-29T11:04:49.022Z,2228.00
2022-08-29T11:06:18.749Z,2340.00
2022-08-29T11:06:48.977Z,2376.00
2022-08-29T11:07:48.960Z,2228.00
2022-08-29T11:08:48.974Z,2080.00
2022-08-29T11:09:48.949Z,2252.00
2022-08-29T11:10:48.944Z,2192.00
2022-08-29T11:11:48.915Z,2080.00
2022-08-29T11:12:48.925Z,2112.00
2022-08-29T11:13:48.907Z,2148.00
2022-08-29T11:14:48.888Z,2112.00
2022-08-29T11:15:48.873Z,2080.00
2022-08-29T11:16:48.942Z,2080.00
2022-08-29T11:17:48.857Z,1992.00
2022-08-29T11:18:48.867Z,1976.00
2022-08-29T11:19:48.858Z,2124.00
2022-08-29T11:20:48.825Z,2072.00
2022-08-29T11:21:48.805Z,1980.00
2022-08-29T11:22:48.804Z,1964.00
2022-08-29T11:23:48.806Z,2096.00
2022-08-29T11:24:48.790Z,2292.00
2022-08-29T11:25:48.775Z,2112.00
2022-08-29T11:26:48.779Z,2224.00
2022-08-29T11:27:48.763Z,2480.00
2022-08-29T11:28:48.746Z,2448.00
2022-08-29T11:29:48.726Z,2468.00
2022-08-29T11:30:48.757Z,2408.00
2022-08-29T11:31:48.854Z,2144.00
2022-08-29T11:32:48.740Z,2412.00
2022-08-29T11:33:49.039Z,2452.00
2022-08-29T11:34:48.716Z,2452.00
2022-08-29T11:35:48.660Z,2452.00
2022-08-29T11:36:48.665Z,2380.00
2022-08-29T11:37:48.647Z,2176.00
2022-08-29T11:38:48.690Z,2156.00
2022-08-29T11:39:48.615Z,2220.00
2022-08-29T11:41:25.814Z,2256.00
2022-08-29T11:41:49.635Z,2376.00
2022-08-29T11:42:50.165Z,2368.00
2022-08-29T11:43:48.585Z,2356.00
2022-08-29T11:44:48.588Z,2240.00
2022-08-29T11:45:48.555Z,2144.00
2022-08-29T11:46:49.412Z,1928.00
2022-08-29T11:47:49.557Z,2036.00
2022-08-29T11:48:48.535Z,2248.00
2022-08-29T11:49:48.542Z,2284.00
2022-08-29T11:50:48.535Z,2300.00
2022-08-29T11:51:48.492Z,1312.00
2022-08-29T11:52:48.483Z,2216.00
2022-08-29T11:53:48.477Z,2192.00
2022-08-29T11:54:48.454Z,2184.00
2022-08-29T11:55:48.468Z,2204.00
2022-08-29T11:56:48.454Z,2344.00
2022-08-29T11:57:48.430Z,2528.00
2022-08-29T11:58:48.417Z,2496.00
2022-08-29T11:59:48.404Z,2512.00
2022-08-29T12:00:48.410Z,2460.00
2022-08-29T12:01:48.534Z,2400.00
2022-08-29T12:02:49.091Z,2236.00
2022-08-29T12:03:48.359Z,2212.00
2022-08-29T12:04:48.393Z,2252.00
2022-08-29T12:05:48.372Z,2364.00
2022-08-29T12:06:48.351Z,2344.00
2022-08-29T12:07:48.327Z,2320.00
2022-08-29T12:08:48.333Z,2184.00
2022-08-29T12:09:48.305Z,2204.00
2022-08-29T12:10:48.306Z,2036.00
2022-08-29T12:11:48.306Z,2140.00
2022-08-29T12:12:48.286Z,2152.00
2022-08-29T12:13:48.286Z,2232.00
2022-08-29T12:14:48.265Z,2244.00
2022-08-29T12:15:48.235Z,2200.00
2022-08-29T12:16:48.406Z,2160.00
2022-08-29T12:18:03.824Z,2184.00
2022-08-29T12:18:49.201Z,2180.00
2022-08-29T12:19:48.207Z,2176.00
2022-08-29T12:20:48.191Z,2128.00
2022-08-29T12:21:48.182Z,2020.00
2022-08-29T12:22:48.203Z,2124.00
2022-08-29T12:23:48.187Z,2092.00
2022-08-29T12:24:50.915Z,2120.00
2022-08-29T12:26:03.710Z,2100.00
2022-08-29T12:26:49.130Z,2088.00
2022-08-29T12:27:48.104Z,2096.00
2022-08-29T12:28:48.134Z,2096.00
2022-08-29T12:29:48.084Z,2108.00
2022-08-29T12:30:48.076Z,2100.00
2022-08-29T12:32:08.581Z,1172.00
2022-08-29T12:32:49.088Z,748.00
2022-08-29T12:33:48.057Z,2056.00
2022-08-29T12:34:49.775Z,1764.00
2022-08-29T12:35:48.033Z,1932.00
2022-08-29T12:36:52.782Z,1708.00
2022-08-29T12:37:48.007Z,1188.00
2022-08-29T12:38:48.022Z,2000.00
2022-08-29T12:39:48.033Z,2072.00
2022-08-29T12:40:48.015Z,1992.00
2022-08-29T12:41:47.966Z,1792.00
2022-08-29T12:42:47.964Z,1708.00
2022-08-29T12:43:47.946Z,1544.00
2022-08-29T12:44:47.985Z,1628.00
2022-08-29T12:45:47.966Z,1852.00
2022-08-29T12:46:47.966Z,1640.00
2022-08-29T12:47:47.907Z,1556.00
2022-08-29T12:48:57.655Z,1856.00
2022-08-29T12:49:48.878Z,1824.00
2022-08-29T12:50:47.864Z,1908.00
2022-08-29T12:51:47.872Z,1732.00
2022-08-29T12:52:47.883Z,1708.00
2022-08-29T12:53:47.832Z,1680.00
2022-08-29T12:54:47.825Z,1664.00
2022-08-29T12:55:47.828Z,1664.00
2022-08-29T12:56:47.827Z,1684.00
2022-08-29T12:57:47.787Z,1696.00
2022-08-29T12:58:47.797Z,1348.00
2022-08-29T12:59:47.778Z,772.00
2022-08-29T13:00:47.769Z,1632.00
2022-08-29T13:01:47.856Z,1528.00
2022-08-29T13:02:47.840Z,1416.00
2022-08-29T13:03:47.762Z,1616.00
2022-08-29T13:04:47.737Z,1524.00
2022-08-29T13:05:47.719Z,1616.00
2022-08-29T13:06:47.703Z,1488.00
2022-08-29T13:07:47.688Z,1668.00
2022-08-29T13:08:47.698Z,1676.00
2022-08-29T13:09:47.713Z,1632.00
2022-08-29T13:10:47.659Z,1684.00
2022-08-29T13:11:47.644Z,1668.00
2022-08-29T13:12:47.660Z,1624.00
2022-08-29T13:13:47.621Z,1544.00
2022-08-29T13:14:47.616Z,1416.00
2022-08-29T13:15:47.711Z,1544.00
2022-08-29T13:16:47.594Z,1392.00
2022-08-29T13:17:47.589Z,1492.00
2022-08-29T13:19:07.357Z,1392.00
2022-08-29T13:19:48.561Z,1508.00
2022-08-29T13:20:47.552Z,1080.00
2022-08-29T13:21:47.573Z,948.00
2022-08-29T13:22:47.554Z,1092.00
2022-08-29T13:23:47.528Z,680.00
2022-08-29T13:24:47.512Z,580.00
2022-08-29T13:25:47.515Z,564.00
2022-08-29T13:26:50.675Z,692.00
2022-08-29T13:27:48.477Z,552.00
2022-08-29T13:28:47.475Z,612.00
2022-08-29T13:29:47.467Z,1188.00
2022-08-29T13:30:48.862Z,1228.00
2022-08-29T13:31:47.494Z,1304.00
2022-08-29T13:32:49.913Z,1488.00
2022-08-29T13:33:47.415Z,1256.00
2022-08-29T13:34:47.406Z,1376.00
2022-08-29T13:35:48.308Z,1212.00
2022-08-29T13:36:47.407Z,1060.00
2022-08-29T13:37:47.420Z,1008.00
2022-08-29T13:38:47.390Z,956.00
2022-08-29T13:39:48.200Z,796.00
2022-08-29T13:40:47.717Z,904.00
2022-08-29T13:41:47.486Z,1172.00
2022-08-29T13:42:50.402Z,1332.00
2022-08-29T13:43:47.607Z,1236.00
2022-08-29T13:44:47.444Z,1108.00
2022-08-29T13:45:48.290Z,864.00
2022-08-29T13:46:54.148Z,800.00
2022-08-29T13:47:49.758Z,1156.00
2022-08-29T13:49:12.074Z,1020.00
2022-08-29T13:49:55.437Z,1068.00
2022-08-29T13:51:10.322Z,860.00
2022-08-29T13:51:47.329Z,1092.00
2022-08-29T13:52:47.261Z,1068.00
2022-08-29T13:53:48.613Z,892.00
2022-08-29T13:55:03.290Z,864.00
2022-08-29T13:55:49.222Z,912.00
2022-08-29T13:56:49.269Z,900.00
2022-08-29T13:57:48.219Z,1032.00
2022-08-29T13:58:47.182Z,1080.00
2022-08-29T13:59:47.165Z,1096.00
2022-08-29T14:00:47.139Z,992.00
2022-08-29T14:02:48.237Z,976.00
2022-08-29T14:03:47.305Z,948.00
2022-08-29T14:04:47.202Z,1012.00
2022-08-29T14:05:47.099Z,1000.00
2022-08-29T14:06:47.088Z,960.00
2022-08-29T14:07:47.065Z,720.00
2022-08-29T14:08:47.056Z,668.00
2022-08-29T14:09:47.078Z,760.00
2022-08-29T14:10:47.044Z,624.00
2022-08-29T14:11:47.019Z,708.00
2022-08-29T14:12:47.014Z,676.00
2022-08-29T14:13:46.989Z,572.00
2022-08-29T14:14:46.998Z,572.00
2022-08-29T14:15:47.027Z,596.00
2022-08-29T14:16:46.957Z,552.00
2022-08-29T14:17:46.946Z,668.00
2022-08-29T14:18:46.971Z,904.00
2022-08-29T14:19:46.926Z,728.00
2022-08-29T14:20:46.921Z,740.00
2022-08-29T14:21:46.905Z,688.00
2022-08-29T14:22:46.913Z,724.00
2022-08-29T14:23:46.880Z,832.00
2022-08-29T14:24:46.869Z,808.00
2022-08-29T14:25:46.861Z,892.00
2022-08-29T14:26:46.868Z,848.00
2022-08-29T14:27:47.843Z,736.00
2022-08-29T14:28:48.190Z,584.00
2022-08-29T14:29:46.816Z,556.00
2022-08-29T14:30:47.854Z,528.00
2022-08-29T14:31:47.802Z,516.00
2022-08-29T14:32:46.792Z,508.00
2022-08-29T14:33:46.780Z,508.00
2022-08-29T14:34:51.210Z,556.00
2022-08-29T14:35:46.760Z,552.00
2022-08-29T14:36:48.259Z,660.00
2022-08-29T14:37:46.733Z,620.00
2022-08-29T14:38:46.715Z,644.00
2022-08-29T14:39:48.450Z,648.00
2022-08-29T14:40:46.776Z,644.00
2022-08-29T14:41:46.690Z,656.00
2022-08-29T14:42:46.678Z,628.00
2022-08-29T14:43:46.686Z,612.00
2022-08-29T14:44:46.665Z,608.00
2022-08-29T14:45:46.645Z,600.00
2022-08-29T14:46:46.690Z,600.00
2022-08-29T14:47:46.679Z,588.00
2022-08-29T14:48:46.628Z,572.00
2022-08-29T14:49:46.604Z,632.00
2022-08-29T14:50:46.601Z,648.00
2022-08-29T14:51:46.589Z,584.00
2022-08-29T14:52:46.567Z,596.00
2022-08-29T14:53:51.524Z,528.00
2022-08-29T14:54:47.603Z,496.00
2022-08-29T14:55:46.533Z,492.00
2022-08-29T14:56:49.596Z,492.00
2022-08-29T14:57:46.515Z,468.00
2022-08-29T14:58:46.509Z,440.00
2022-08-29T14:59:46.489Z,420.00
2022-08-29T15:00:46.502Z,408.00
2022-08-29T15:01:52.635Z,396.00
2022-08-29T15:02:47.493Z,380.00
2022-08-29T15:03:46.470Z,380.00
2022-08-29T15:04:46.450Z,388.00
2022-08-29T15:05:46.857Z,400.00
2022-08-29T15:06:46.421Z,412.00
2022-08-29T15:07:46.402Z,428.00
2022-08-29T15:08:46.412Z,444.00
2022-08-29T15:09:46.410Z,444.00
2022-08-29T15:10:46.370Z,444.00
2022-08-29T15:11:46.360Z,444.00
2022-08-29T15:12:46.371Z,444.00
2022-08-29T15:13:46.338Z,432.00
2022-08-29T15:14:46.325Z,448.00
2022-08-29T15:15:46.370Z,476.00
2022-08-29T15:16:46.298Z,484.00
2022-08-29T15:17:46.292Z,508.00
2022-08-29T15:19:31.546Z,512.00
2022-08-29T15:20:34.294Z,528.00
2022-08-29T15:20:47.573Z,520.00
2022-08-29T15:21:46.247Z,548.00
2022-08-29T15:22:46.248Z,560.00
2022-08-29T15:23:46.242Z,564.00
2022-08-29T15:24:46.223Z,540.00
2022-08-29T15:25:52.135Z,512.00
2022-08-29T15:26:47.188Z,468.00
2022-08-29T15:27:46.185Z,432.00
2022-08-29T15:28:46.254Z,400.00
2022-08-29T15:29:46.162Z,388.00
2022-08-29T15:30:46.185Z,368.00
2022-08-29T15:31:46.150Z,348.00
2022-08-29T15:32:46.127Z,336.00
2022-08-29T15:33:46.124Z,308.00
2022-08-29T15:34:46.131Z,300.00
2022-08-29T15:35:46.092Z,300.00
2022-08-29T15:36:46.101Z,276.00
2022-08-29T15:37:46.079Z,260.00
2022-08-29T15:38:46.080Z,256.00
2022-08-29T15:39:46.065Z,256.00
2022-08-29T15:40:46.114Z,256.00
2022-08-29T15:41:46.046Z,256.00
2022-08-29T15:42:46.042Z,268.00
2022-08-29T15:43:46.010Z,264.00
2022-08-29T15:44:46.000Z,264.00
2022-08-29T15:45:47.037Z,260.00
2022-08-29T15:46:50.379Z,248.00
2022-08-29T15:47:46.565Z,240.00
2022-08-29T15:48:45.971Z,244.00
2022-08-29T15:49:45.949Z,248.00
2022-08-29T15:50:45.940Z,264.00
2022-08-29T15:51:45.934Z,268.00
2022-08-29T15:52:45.918Z,276.00
2022-08-29T15:53:45.943Z,288.00
2022-08-29T15:54:45.921Z,292.00
2022-08-29T15:55:45.889Z,304.00
2022-08-29T15:56:45.881Z,304.00
2022-08-29T15:57:52.159Z,300.00
2022-08-29T15:58:46.858Z,312.00
2022-08-29T16:00:00.159Z,308.00
2022-08-29T16:00:46.837Z,312.00
2022-08-29T16:01:45.867Z,316.00
2022-08-29T16:02:45.879Z,312.00
2022-08-29T16:03:45.824Z,300.00
2022-08-29T16:04:45.814Z,284.00
2022-08-29T16:05:45.813Z,272.00
2022-08-29T16:06:45.802Z,268.00
2022-08-29T16:07:45.768Z,272.00
2022-08-29T16:08:46.208Z,276.00
2022-08-29T16:09:45.747Z,284.00
2022-08-29T16:10:45.760Z,272.00
2022-08-29T16:11:45.734Z,264.00
2022-08-29T16:12:45.718Z,256.00
2022-08-29T16:13:45.714Z,236.00
2022-08-29T16:14:59.215Z,228.00
2022-08-29T16:15:46.755Z,224.00
2022-08-29T16:16:45.674Z,224.00
2022-08-29T16:17:45.664Z,228.00
2022-08-29T16:18:45.691Z,228.00
2022-08-29T16:19:45.652Z,228.00
2022-08-29T16:20:45.636Z,232.00
2022-08-29T16:21:45.635Z,236.00
2022-08-29T16:22:45.622Z,236.00
2022-08-29T16:23:45.626Z,240.00
2022-08-29T16:24:45.630Z,240.00
2022-08-29T16:25:45.664Z,244.00
2022-08-29T16:26:45.986Z,244.00
2022-08-29T16:27:45.571Z,244.00
2022-08-29T16:28:45.554Z,248.00
2022-08-29T16:29:45.564Z,248.00
2022-08-29T16:30:46.302Z,244.00
2022-08-29T16:31:45.535Z,240.00
2022-08-29T16:32:45.508Z,232.00
2022-08-29T16:33:45.509Z,224.00
2022-08-29T16:34:45.489Z,216.00
2022-08-29T16:35:45.491Z,212.00
2022-08-29T16:36:45.480Z,208.00
2022-08-29T16:37:45.457Z,200.00
2022-08-29T16:38:45.446Z,196.00
2022-08-29T16:39:45.453Z,192.00
2022-08-29T16:40:45.585Z,188.00
2022-08-29T16:41:45.426Z,184.00
2022-08-29T16:42:55.342Z,184.00
2022-08-29T16:43:46.403Z,180.00
2022-08-29T16:44:45.391Z,176.00
2022-08-29T16:45:45.442Z,172.00
2022-08-29T16:46:45.364Z,168.00
2022-08-29T16:47:45.388Z,164.00
2022-08-29T16:48:45.337Z,160.00
2022-08-29T16:49:45.348Z,156.00